x

9087069 - Kewaunee, Wi (kwnw3) Weather Station

7:18pm - Mon 11th Dec 2017 All times are CST. -6 hours from GMT.

  • Wind
    8mph, 13mph gusts
  • Air Temp 28°f
  • Sea Pressure 1008.3mb
  • 9087069 - Kewaunee, Wi
  • 9087069 - Kewaunee, Wi

More Historic Weather Station data

Upgrade to MSW Pro to gain access to the past 30 days of data for over 8000 Wavebouys and Weather Stations around the globe.

Join

Comparision Forecast

View Surf forecast
   
Mon 12/11 7:18pm 8 13 mph 1008.3mb 28f
7:12pm 8 13 mph 1008.1mb 28f
7:06pm 7 13 mph 1008.1mb 28f
7:00pm 8 11 mph 1008mb 28f
6:54pm 9 13 mph 1007.9mb 28f
6:48pm 8 13 mph 1008mb 28f
6:42pm 8 11 mph 1007.9mb 28f
6:36pm 7 9 mph 1007.8mb 28f
6:30pm 9 13 mph 1007.7mb 28f
6:24pm 9 13 mph 1007.7mb 27f
6:18pm 8 14 mph 1007.5mb -
6:12pm 9 11 mph 1007.5mb -
6:06pm 9 14 mph 1007.5mb -
6:00pm 8 13 mph 1007.3mb 27f
5:54pm 10 13 mph 1007.3mb 27f
5:48pm 10 15 mph 1007.1mb 27f
5:42pm 10 15 mph 1007.1mb 27f
5:36pm 11 21 mph 1007mb 26f
5:30pm 9 16 mph 1007mb 27f
5:24pm 10 15 mph 1007mb 27f
5:18pm 10 15 mph 1007mb 27f
5:12pm 9 14 mph 1007mb 27f
5:06pm 8 13 mph 1006.9mb 27f
5:00pm 9 15 mph 1006.7mb 27f
4:54pm 8 13 mph 1006.7mb 27f
4:48pm 10 13 mph 1006.6mb 27f
4:42pm 7 11 mph 1006.7mb 27f
4:36pm 8 10 mph 1006.7mb 27f
4:30pm 8 11 mph 1006.6mb 27f
4:24pm 6 10 mph 1006.6mb 27f
4:18pm 7 10 mph 1006.6mb 27f
4:12pm 7 10 mph 1006.6mb 27f
4:06pm 7 11 mph 1006.5mb 28f
4:00pm 8 13 mph 1006.5mb 28f
3:54pm 6 9 mph 1006.4mb 28f
3:48pm 5 8 mph 1006.3mb 28f
3:42pm 7 9 mph 1006.3mb 28f
3:36pm 7 9 mph 1006.3mb 28f
3:30pm 6 9 mph 1006.2mb 28f
3:24pm 6 10 mph 1006.2mb 28f
3:18pm 7 11 mph 1006.1mb 28f
3:12pm 7 9 mph 1006mb 28f
3:06pm 6 10 mph 1006mb 28f
3:00pm 7 10 mph 1006.1mb 28f
2:54pm 7 10 mph 1005.9mb 28f
2:48pm 8 11 mph 1005.9mb 28f
2:42pm 8 10 mph 1005.6mb 28f
2:36pm 6 7 mph 1005.5mb 28f
2:30pm 5 7 mph 1005.5mb 28f
2:24pm 3 6 mph 1005.6mb 28f
2:18pm 6 8 mph 1005.5mb 28f
2:12pm 3 6 mph 1005.6mb 28f
2:06pm 5 6 mph 1005.6mb 28f
2:00pm 5 6 mph 1005.5mb 28f
1:54pm 2 6 mph 1005.3mb 28f
1:48pm 5 6 mph 1005.5mb 28f
1:42pm 2 5 mph 1005.7mb 27f
1:36pm 1 3 mph 1005.9mb 27f
1:30pm 2 3 mph 1006mb 27f
1:24pm 2 5 mph 1006mb 27f
1:18pm 3 5 mph 1006.1mb 27f
1:12pm 2 5 mph 1006.2mb 27f
1:06pm 2 3 mph 1006.3mb 27f
1:00pm 3 5 mph 1006.3mb 27f
12:54pm 3 5 mph 1006.4mb 27f
12:48pm 3 6 mph 1006.4mb 27f
12:42pm 3 5 mph 1006.4mb 27f
12:36pm 3 5 mph 1006.6mb 27f
12:30pm 2 6 mph 1006.7mb 27f
12:24pm 2 6 mph 1006.8mb 27f
12:18pm 2 6 mph 1006.8mb 27f
12:12pm 6 8 mph 1006.8mb 27f
12:06pm 5 8 mph 1006.8mb 27f
12:00pm 6 8 mph 1006.8mb 27f
11:54am 7 8 mph 1007mb 26f
11:48am 6 8 mph 1007.2mb 27f
11:42am 6 8 mph 1007.3mb 27f
11:36am 7 9 mph 1007.4mb 27f
11:30am 7 9 mph 1007.6mb 27f
11:24am 6 10 mph 1007.8mb 27f
11:18am 6 9 mph 1007.9mb 26f
11:12am 7 10 mph 1008.1mb 26f
11:06am 8 11 mph 1008.2mb 26f
11:00am 8 11 mph 1008.3mb 26f
10:54am 8 10 mph 1008.5mb 26f
10:48am 8 10 mph 1008.6mb 26f
10:42am 8 11 mph 1008.7mb 26f
10:36am 8 11 mph 1008.8mb 26f
10:30am 9 11 mph 1009mb 26f
10:24am 8 11 mph 1009.3mb 25f
10:18am 8 10 mph 1009.3mb 25f
10:12am 8 13 mph 1009.5mb 25f
10:06am 8 14 mph 1009.6mb 25f
10:00am 9 11 mph 1009.8mb 24f
9:54am 9 10 mph 1010mb 25f
9:48am 8 11 mph 1010.1mb 24f
9:42am 9 11 mph 1010.2mb 24f
9:36am 9 11 mph 1010.4mb 24f
9:30am 9 14 mph 1010.5mb 24f
9:24am 8 13 mph 1010.5mb 24f
9:18am 9 13 mph 1010.5mb 24f
9:12am 8 13 mph 1010.4mb 24f
9:06am 9 13 mph 1010.6mb 24f
9:00am 8 11 mph 1010.8mb 24f
8:54am 8 11 mph 1010.5mb 24f
8:48am 9 14 mph 1010.6mb 24f
8:42am 8 11 mph 1010.7mb 24f
8:36am 8 11 mph 1011mb 23f
8:30am 8 14 mph 1011.1mb 23f
8:24am 9 11 mph 1011.3mb 23f
8:18am 8 11 mph 1011.6mb 23f
8:12am 7 11 mph 1011.6mb 23f
8:06am 7 13 mph 1011.6mb 23f
8:00am 6 13 mph 1011.5mb 23f
7:54am 6 10 mph 1011.6mb 22f
7:48am 8 13 mph 1011.8mb 22f
7:42am 8 13 mph 1012mb 22f
7:36am 8 11 mph 1012mb 22f
7:30am 6 11 mph 1012.1mb 22f
7:24am 7 11 mph 1012.2mb 22f
7:18am 7 11 mph 1012.1mb 23f
7:12am 8 14 mph 1012.2mb 23f
7:06am 7 9 mph 1011.9mb 23f
7:00am 7 13 mph 1012.1mb 23f
6:48am 7 11 mph 1012.3mb 23f
6:42am 9 11 mph 1012.4mb 23f
6:36am 9 11 mph 1012.5mb 23f
6:30am 7 11 mph 1012.3mb 24f
6:24am 9 11 mph 1012.3mb 24f
6:18am 9 10 mph 1012.5mb 24f
6:12am 8 10 mph 1012.4mb 24f
6:06am 7 9 mph 1012.5mb 24f
6:00am 7 9 mph 1012.5mb 25f
5:54am 7 8 mph 1012.5mb 24f
5:48am 7 9 mph 1012.6mb 24f
5:42am 5 7 mph 1012.5mb 24f
5:36am 5 6 mph 1012.6mb 23f
5:30am 3 6 mph 1012.6mb 21f
5:24am 2 6 mph 1012.7mb 21f
5:18am 1 2 mph 1012.9mb 20f
5:12am 2 2 mph 1013.1mb 19f
5:06am 1 3 mph 1013.3mb 19f
5:00am 2 3 mph 1013.5mb 20f
4:54am 2 3 mph 1013.4mb 20f
4:48am 2 3 mph 1013.4mb 19f
4:42am 1 1 mph 1013.5mb 19f
4:36am  -  2 mph 1013.5mb 20f
4:30am 1 2 mph 1013.6mb 19f
4:24am 1 2 mph 1013.8mb 19f
4:18am 2 2 mph 1013.9mb 19f
4:12am 1 2 mph 1014mb 19f
4:06am 1 3 mph 1014mb 19f
4:00am 2 3 mph 1014.2mb 19f
3:54am 2 3 mph 1014.4mb 19f
3:48am 3 3 mph 1014.6mb 19f
3:42am 3 5 mph 1014.8mb 19f
3:36am 3 5 mph 1014.8mb 19f
3:30am 3 3 mph 1014.8mb 18f
3:24am 3 5 mph 1014.9mb 18f
3:18am 2 3 mph 1015.1mb 18f
3:12am 2 5 mph 1015.1mb 18f
3:06am 3 5 mph 1015.2mb 18f
3:00am 3 5 mph 1015.3mb 18f
2:54am 2 3 mph 1015.4mb 18f
2:48am 1 2 mph 1015.5mb 18f
2:42am 2 3 mph 1015.7mb 18f
2:36am 2 3 mph 1015.8mb 18f
2:30am 3 3 mph 1015.6mb 18f
2:24am  -  2 mph 1015.6mb 18f
2:18am 1 3 mph 1015.5mb 21f
2:12am 1 5 mph 1015.4mb 22f
2:06am 5 7 mph 1015.3mb 22f
2:00am 5 6 mph 1015.5mb 22f
1:54am 2 6 mph 1015.5mb 22f
1:48am 5 6 mph 1015.5mb 21f
1:42am 5 9 mph 1015.4mb 21f
1:36am 6 8 mph 1015.4mb 21f
1:30am 8 10 mph 1015.6mb 20f
1:24am 5 7 mph 1015.8mb 19f
1:18am 5 8 mph 1016.1mb 19f
1:12am 6 8 mph 1016.1mb 19f
1:06am 7 8 mph 1016.2mb 19f
1:00am 6 7 mph 1016.4mb 19f
12:48am 5 6 mph 1016.7mb -
12:42am 3 5 mph 1016.8mb -
12:36am 2 5 mph 1016.8mb -
12:30am 2 3 mph 1016.8mb 15f
12:24am 2 2 mph 1016.8mb 15f
12:18am 2 2 mph 1016.8mb 15f
12:12am 3 3 mph 1016.7mb 16f
12:06am 3 5 mph 1016.6mb 16f
12:00am 3 5 mph 1016.4mb 16f
Sun 12/10 11:54pm 3 3 mph 1016.5mb 15f
11:48pm 3 3 mph 1016.6mb 16f
11:42pm 3 3 mph 1016.7mb 15f
11:36pm 3 5 mph 1016.6mb 15f
11:30pm 3 5 mph 1016.6mb 15f
11:24pm 3 5 mph 1016.5mb 16f
11:18pm 3 5 mph 1016.4mb 16f
11:12pm 2 3 mph 1016.3mb 16f
11:06pm 2 3 mph 1016.5mb 17f
11:00pm 3 3 mph 1016.5mb 17f
10:54pm 2 3 mph 1016.4mb 18f
10:48pm 2 2 mph 1016.4mb 18f
10:42pm 2 2 mph 1016.3mb 18f
10:36pm 1 2 mph 1016.5mb 19f
10:30pm 1 2 mph 1016.7mb 19f
10:24pm 2 2 mph 1016.7mb 19f
10:18pm 1 2 mph 1016.7mb 20f
10:12pm 1 1 mph 1016.6mb 20f
10:06pm 1 2 mph 1016.6mb 20f
10:00pm 1 2 mph 1016.7mb 20f
9:54pm 2 3 mph 1016.7mb 20f
9:48pm 2 5 mph 1016.6mb 20f
9:42pm 3 6 mph 1016.8mb 20f
9:36pm 5 5 mph 1016.9mb 21f
9:30pm 5 6 mph 1017mb 21f
9:24pm 5 6 mph 1017.1mb 21f
9:18pm 3 6 mph 1017.1mb 22f
9:12pm 6 7 mph 1017.1mb 22f
9:06pm 3 6 mph 1017.1mb 22f
9:00pm 5 7 mph 1017mb 22f
8:54pm 5 7 mph 1016.9mb 22f
8:48pm 6 9 mph 1016.9mb 22f
8:42pm 7 11 mph 1016.9mb 23f
8:36pm 8 13 mph 1016.9mb 23f
8:30pm 8 13 mph 1016.9mb 23f
8:24pm 10 15 mph 1016.9mb 23f
8:18pm 7 11 mph 1016.8mb 23f
8:12pm 7 13 mph 1016.7mb 23f
8:06pm 10 14 mph 1016.6mb 24f
8:00pm 10 14 mph 1016.6mb 24f
7:54pm 8 16 mph 1016.7mb 24f
7:48pm 8 13 mph 1016.6mb 24f
7:42pm 8 13 mph 1016.6mb 24f
7:36pm 6 11 mph 1016.6mb 24f
7:30pm 9 13 mph 1016.5mb 24f
7:24pm 6 9 mph 1016.5mb 24f
7:18pm 7 9 mph 1016.4mb 24f
7:12pm 7 9 mph 1016.3mb 24f
7:06pm 7 10 mph 1016.2mb 24f
7:00pm 8 13 mph 1016.2mb 24f
6:54pm 7 10 mph 1016.1mb 24f
6:48pm 8 11 mph 1016.2mb 23f
6:42pm 6 8 mph 1016.1mb 23f
6:36pm 5 6 mph 1016mb 22f
6:30pm 3 5 mph 1016mb 23f
6:24pm 2 6 mph 1015.9mb 23f
6:18pm 3 6 mph 1015.7mb 23f
6:12pm 3 6 mph 1015.6mb 23f
6:06pm 5 7 mph 1015.5mb 23f
6:00pm 5 9 mph 1015.4mb 24f
5:54pm 6 9 mph 1015.3mb 24f
5:48pm 6 10 mph 1015.2mb 24f
5:42pm 5 7 mph 1015.1mb 24f
5:36pm 7 11 mph 1015.1mb 25f
5:30pm 7 9 mph 1014.9mb 25f
5:24pm 6 9 mph 1014.9mb 25f
5:18pm 5 7 mph 1014.8mb 25f
5:12pm 7 13 mph 1014.6mb 26f
5:06pm 10 14 mph 1014.6mb 26f
5:00pm 6 15 mph 1014.6mb 26f
4:54pm 9 16 mph 1014.5mb 26f
4:48pm 7 13 mph 1014.4mb 26f
4:42pm 7 10 mph 1014.2mb 26f
4:36pm 5 9 mph 1014mb 26f
4:30pm 5 10 mph 1013.9mb 26f
4:24pm 8 10 mph 1013.7mb 26f
4:18pm 7 10 mph 1013.7mb 26f
4:12pm 7 10 mph 1013.6mb 26f
4:06pm 9 13 mph 1013.5mb 26f
4:00pm 9 13 mph 1013.3mb 26f
3:54pm 10 14 mph 1013.2mb 26f
3:48pm 5 8 mph 1013.2mb 26f
3:42pm 6 9 mph 1013.1mb 26f
3:36pm 6 11 mph 1012.9mb 26f
3:30pm 5 10 mph 1012.9mb 26f
3:24pm 8 13 mph 1012.8mb 26f
3:18pm 7 14 mph 1012.6mb 26f
3:12pm 8 11 mph 1012.6mb 26f
3:06pm 7 11 mph 1012.6mb 26f
3:00pm 7 11 mph 1012.4mb 26f
2:54pm 8 11 mph 1012.2mb 26f
2:48pm 7 13 mph 1012.2mb 26f
2:42pm 13 17 mph 1012.1mb 26f
2:36pm 11 16 mph 1012mb 26f
2:30pm 10 18 mph 1012mb 26f
2:24pm 14 17 mph 1011.9mb 26f
2:18pm 10 15 mph 1011.8mb 26f
2:12pm 10 16 mph 1011.6mb 26f
2:06pm 9 14 mph 1011.5mb 26f
2:00pm 9 15 mph 1011.4mb 26f
1:54pm 9 13 mph 1011.3mb 26f
1:48pm 8 14 mph 1011.2mb 26f
1:42pm 9 14 mph 1011.2mb 26f
1:36pm 11 15 mph 1011.2mb 26f
1:30pm 7 10 mph 1011.2mb 25f
1:24pm 10 15 mph 1011.2mb 24f
1:18pm 11 15 mph 1011.2mb 25f
1:12pm 9 14 mph 1011.2mb 24f
1:06pm 10 14 mph 1011.2mb 24f
1:00pm 7 14 mph 1011.1mb 24f
12:54pm 9 15 mph 1011.1mb 24f
12:48pm 9 16 mph 1011.3mb 23f
12:42pm 11 17 mph 1011.3mb 24f
12:36pm 9 14 mph 1011.2mb 23f
12:30pm 10 15 mph 1011.1mb 23f
12:24pm 11 15 mph 1011.1mb 24f
12:18pm 9 13 mph 1011mb 24f
12:12pm 8 16 mph 1010.8mb 24f
12:06pm 10 16 mph 1010.8mb 24f
12:00pm 10 17 mph 1010.7mb 24f
11:54am 11 17 mph 1010.6mb 24f
11:48am 11 16 mph 1010.5mb 24f
11:42am 10 13 mph 1010.5mb 24f
11:36am 8 10 mph 1010.6mb 23f
11:30am 10 15 mph 1010.7mb 23f
11:24am 13 15 mph 1010.7mb 23f
11:18am 10 14 mph 1010.6mb 23f
11:12am 8 15 mph 1010.5mb 23f
11:06am 9 14 mph 1010.5mb 23f
11:00am 11 15 mph 1010.5mb 23f
10:54am 9 15 mph 1010.5mb 22f
10:48am 10 15 mph 1010.5mb 22f
10:42am 11 14 mph 1010.5mb 22f
10:36am 9 13 mph 1010.4mb 22f
10:30am 8 11 mph 1010.3mb 21f
10:24am 9 13 mph 1010.5mb 22f
10:18am 7 11 mph 1010.4mb 21f
10:12am 9 14 mph 1010.5mb 21f
10:06am 8 15 mph 1010.6mb 21f
10:00am 10 14 mph 1010.6mb 21f
9:54am 9 14 mph 1010.5mb 21f
9:48am 8 9 mph 1010.5mb 21f
9:42am 5 8 mph 1010.6mb 21f
9:36am 6 8 mph 1010.6mb 21f
9:30am 5 7 mph 1010.5mb 20f
9:24am 5 7 mph 1010.6mb 20f
9:18am 6 7 mph 1010.5mb 20f
9:12am 5 7 mph 1010.4mb 20f
9:06am 6 9 mph 1010.4mb 20f
9:00am 6 8 mph 1010.4mb 20f
8:54am 5 7 mph 1010.5mb 20f
8:48am 5 6 mph 1010.5mb 20f
8:42am 5 6 mph 1010.6mb 20f
8:36am 3 6 mph 1010.7mb 20f
8:30am 2 6 mph 1010.7mb 20f
8:24am 5 6 mph 1010.7mb 20f
8:18am 3 6 mph 1010.7mb 20f
8:12am 3 6 mph 1010.6mb 20f
8:06am 3 5 mph 1010.6mb 20f
8:00am 3 5 mph 1010.4mb 20f
7:54am 2 3 mph 1010.4mb 20f
7:48am 2 3 mph 1010.3mb 20f
7:42am 2 5 mph 1010.3mb 20f
7:36am 2 3 mph 1010.3mb 19f
7:30am 2 5 mph 1010.3mb 19f
7:24am 2 5 mph 1010.4mb 19f
7:18am 1 3 mph 1010.4mb 19f
7:12am 2 3 mph 1010.4mb 19f
7:06am 2 3 mph 1010.5mb 19f
7:00am 2 3 mph 1010.6mb 19f
6:54am 3 5 mph 1010.6mb 19f
6:48am 2 5 mph 1010.6mb 19f
6:42am 3 5 mph 1010.5mb 19f
6:36am 2 6 mph 1010.5mb 19f
6:30am 3 6 mph 1010.4mb 19f
6:24am 5 6 mph 1010.4mb 19f
6:18am 2 3 mph 1010.1mb 19f
6:12am 3 5 mph 1010mb 19f
6:06am 1 3 mph 1010mb 19f
6:00am 2 5 mph 1010.1mb 19f
5:54am 2 3 mph 1010mb 19f
5:48am 3 7 mph 1010.1mb 19f
5:42am 3 6 mph 1010.1mb 19f
5:36am 5 7 mph 1010.1mb 19f
5:30am 5 7 mph 1010.1mb 19f
5:24am 5 7 mph 1010.1mb 19f
5:18am 3 5 mph 1010.1mb 19f
5:12am 3 7 mph 1010mb 19f
5:06am 5 8 mph 1009.8mb 19f
5:00am 6 8 mph 1009.9mb 19f
4:54am 5 8 mph 1010.1mb 19f
4:48am 6 8 mph 1010.1mb 18f
4:42am 6 8 mph 1010.1mb 18f
4:36am 6 8 mph 1010.1mb 18f
4:30am 6 8 mph 1010mb 18f
4:24am 6 9 mph 1010.1mb 18f
4:18am 6 9 mph 1010.3mb 18f
4:12am 6 10 mph 1010.4mb 18f
4:06am 7 11 mph 1010.3mb 18f
4:00am 7 13 mph 1010.3mb 18f
3:54am 9 11 mph 1010.3mb 18f
3:48am 8 10 mph 1010.5mb 18f
3:42am 7 10 mph 1010.6mb 17f
3:36am 9 11 mph 1010.7mb 17f
3:30am 8 11 mph 1010.7mb 17f
3:24am 7 13 mph 1010.8mb 17f
3:18am 8 13 mph 1010.9mb 17f
3:12am 9 11 mph 1010.8mb 17f
3:06am 9 13 mph 1010.9mb 17f
3:00am 5 11 mph 1011mb 17f
2:54am 5 7 mph 1011.1mb 17f
2:48am 5 8 mph 1011.1mb 17f
2:42am 6 8 mph 1011.2mb 17f
2:36am 7 8 mph 1011.3mb 17f
2:30am 6 8 mph 1011.4mb 17f
2:24am 5 9 mph 1011.4mb 17f
2:18am 7 9 mph 1011.4mb 17f
2:12am 6 9 mph 1011.6mb 17f
2:06am 5 9 mph 1011.6mb 17f
2:00am 7 10 mph 1011.7mb 17f
1:54am 5 7 mph 1011.8mb 17f
1:48am 6 9 mph 1011.8mb 17f
1:42am 6 9 mph 1012mb 17f
1:36am 5 9 mph 1012.1mb 16f
1:30am 6 8 mph 1012.2mb 16f
1:24am 6 10 mph 1012.2mb 16f
1:18am 6 8 mph 1012.3mb 16f
1:12am 6 9 mph 1012.3mb 16f
1:06am 8 10 mph 1012.4mb 16f
1:00am 7 10 mph 1012.5mb 16f
12:54am 8 10 mph 1012.6mb 16f
12:48am 7 11 mph 1012.6mb 16f
12:42am 7 9 mph 1012.6mb 16f
12:36am 8 10 mph 1012.8mb 16f
12:30am 8 10 mph 1012.9mb 16f
12:24am 7 11 mph 1012.9mb 16f
12:18am 6 11 mph 1013mb 16f
12:12am 7 9 mph 1013.2mb 15f
12:06am 7 8 mph 1013.3mb 15f
12:00am 5 6 mph 1013.3mb 15f
Sat 12/09 11:54pm 5 8 mph 1013.4mb 16f
11:48pm 6 8 mph 1013.4mb -
11:42pm 6 7 mph 1013.4mb -
11:36pm 5 8 mph 1013.6mb -
11:30pm 5 7 mph 1013.6mb 16f
11:24pm 6 7 mph 1013.5mb 16f
11:18pm 5 9 mph 1013.7mb 16f
11:12pm 3 8 mph 1013.6mb 16f
11:06pm 5 8 mph 1013.6mb 16f
11:00pm 6 9 mph 1013.9mb 16f
10:54pm 6 10 mph 1013.8mb 16f
10:48pm 7 8 mph 1013.9mb 16f
10:42pm 6 10 mph 1014mb 16f
10:36pm 8 9 mph 1014.1mb 16f
10:30pm 7 9 mph 1014mb 17f
10:24pm 8 10 mph 1014.1mb 17f
10:18pm 8 13 mph 1014.3mb 17f
10:12pm 8 10 mph 1014.2mb 17f
10:06pm 8 10 mph 1014.4mb 17f
10:00pm 6 9 mph 1014.3mb 17f
9:54pm 7 9 mph 1014.3mb 17f
9:48pm 7 9 mph 1014.4mb 17f
9:42pm 7 8 mph 1014.5mb 17f
9:36pm 6 7 mph 1014.4mb 16f
9:30pm 5 6 mph 1014.5mb 16f
9:24pm 3 6 mph 1014.6mb 16f
9:18pm 2 5 mph 1014.6mb 16f
9:12pm 3 5 mph 1014.7mb 16f
9:06pm 3 5 mph 1014.7mb 16f
9:00pm 2 5 mph 1014.8mb 16f
8:54pm 2 3 mph 1014.9mb 16f
8:48pm 2 5 mph 1014.8mb 16f
8:42pm 2 3 mph 1014.8mb 17f
8:36pm 2 3 mph 1014.8mb 17f
8:30pm 2 5 mph 1014.8mb 17f
8:24pm 2 3 mph 1014.8mb 17f
8:18pm 3 6 mph 1014.9mb 17f
8:12pm 3 7 mph 1014.8mb 18f
8:06pm 6 8 mph 1014.7mb 18f
8:00pm 6 8 mph 1014.7mb 18f
7:54pm 5 8 mph 1014.8mb 19f
7:48pm 6 8 mph 1014.8mb 19f
7:42pm 6 7 mph 1014.8mb 19f
7:36pm 5 8 mph 1015mb 20f
7:30pm 6 10 mph 1015mb 20f
7:24pm 5 10 mph 1015mb 20f
7:18pm 8 10 mph 1014.9mb 20f
7:12pm 6 10 mph 1014.9mb 20f
7:06pm 7 10 mph 1015mb 20f
7:00pm 3 5 mph 1014.9mb 20f
6:54pm 2 5 mph 1015.1mb 20f
6:48pm 3 5 mph 1015.1mb 20f
6:42pm 5 6 mph 1015mb 20f
6:36pm 3 5 mph 1014.9mb 20f
6:30pm 5 5 mph 1014.8mb 20f
6:24pm 2 3 mph 1014.8mb 20f
6:18pm 2 5 mph 1014.8mb 20f
6:12pm 2 3 mph 1014.9mb 20f
6:06pm 3 5 mph 1014.9mb 20f
6:00pm 2 3 mph 1014.8mb 20f
5:54pm 2 3 mph 1014.7mb 20f
5:48pm 2 2 mph 1014.6mb 20f
5:42pm 1 2 mph 1014.6mb 21f
5:36pm 1 5 mph 1014.6mb 21f
5:30pm 3 7 mph 1014.5mb 22f
5:24pm 3 8 mph 1014.6mb 22f
5:18pm 6 8 mph 1014.7mb 22f
5:12pm 6 9 mph 1014.7mb 22f
5:06pm 3 5 mph 1014.5mb 22f
5:00pm 2 3 mph 1014.4mb 22f
4:54pm 2 5 mph 1014.4mb 23f
4:48pm 3 7 mph 1014.4mb 23f
4:42pm 6 9 mph 1014.3mb 23f
4:36pm 7 10 mph 1014.3mb 23f
4:30pm 7 9 mph 1014.2mb 23f
4:24pm 8 14 mph 1014.1mb 23f
4:18pm 7 11 mph 1014mb 23f
4:12pm 7 11 mph 1013.9mb 24f
4:06pm 8 13 mph 1013.8mb 23f
4:00pm 7 11 mph 1013.7mb 24f
3:54pm 8 16 mph 1013.6mb 24f
3:48pm 10 15 mph 1013.6mb 24f
3:42pm 9 14 mph 1013.5mb 24f
3:36pm 9 14 mph 1013.4mb 24f
3:30pm 9 14 mph 1013.3mb 24f
3:24pm 9 15 mph 1013.3mb 24f
3:18pm 10 15 mph 1013.3mb 24f
3:12pm 8 15 mph 1013.2mb 24f
3:06pm 7 16 mph 1013mb 24f
3:00pm 10 15 mph 1012.9mb 24f
2:54pm 10 16 mph 1012.7mb 24f
2:48pm 10 17 mph 1012.6mb 25f
2:42pm 9 20 mph 1012.5mb 25f
2:36pm 10 14 mph 1012.4mb 25f
2:30pm 8 14 mph 1012.4mb 25f
2:24pm 11 17 mph 1012.2mb 25f
2:18pm 11 22 mph 1012.1mb 25f
2:12pm 16 21 mph 1012mb 25f
2:06pm 10 17 mph 1011.9mb 25f
2:00pm 13 18 mph 1011.8mb 25f
1:54pm 14 18 mph 1011.8mb 25f
1:48pm 13 20 mph 1011.7mb 25f
1:42pm 11 20 mph 1011.7mb 25f
1:36pm 13 18 mph 1011.5mb 25f
1:30pm 11 17 mph 1011.5mb 25f
1:24pm 13 20 mph 1011.5mb 25f
1:18pm 14 18 mph 1011.5mb 25f
1:12pm 14 21 mph 1011.5mb 25f
1:06pm 13 18 mph 1011.6mb 25f
1:00pm 11 18 mph 1011.6mb 25f
12:54pm 13 21 mph 1011.5mb 25f
12:48pm 13 18 mph 1011.5mb 25f
12:42pm 11 20 mph 1011.5mb 25f
12:36pm 13 18 mph 1011.4mb 25f
12:30pm 16 22 mph 1011.3mb 25f
12:24pm 14 21 mph 1011.3mb 25f
12:18pm 13 22 mph 1011.2mb 25f
12:12pm 17 22 mph 1011.1mb 25f
12:06pm 16 22 mph 1011mb 26f
12:00pm 14 22 mph 1010.9mb 26f
11:54am 13 20 mph 1010.8mb 25f
11:48am 14 21 mph 1010.7mb 25f
11:42am 14 24 mph 1010.6mb 25f
11:36am 16 23 mph 1010.5mb 26f
11:30am 15 22 mph 1010.5mb 26f
11:24am 15 23 mph 1010.3mb 25f
11:18am 18 25 mph 1010.2mb 25f
11:12am 17 26 mph 1010.3mb 25f
11:06am 13 21 mph 1010.2mb 25f
11:00am 17 25 mph 1010.2mb 24f
10:54am 16 23 mph 1010.1mb 24f
10:48am 15 24 mph 1010.1mb 24f
10:42am 13 24 mph 1010mb 24f
10:36am 16 24 mph 1010mb 24f
10:30am 15 23 mph 1009.9mb 24f
10:24am 15 24 mph 1009.8mb 24f
10:18am 15 22 mph 1009.7mb 24f
10:12am 14 20 mph 1009.7mb 24f
10:06am 16 24 mph 1009.6mb 24f
10:00am 15 22 mph 1009.5mb 24f
9:54am 14 21 mph 1009.3mb 24f
9:48am 14 22 mph 1009.3mb 24f
9:42am 16 22 mph 1009.2mb 24f
9:36am 14 23 mph 1009mb 24f
9:30am 15 21 mph 1008.9mb 24f
9:24am 14 21 mph 1008.8mb 24f
9:18am 16 23 mph 1008.7mb 23f
9:12am 15 24 mph 1008.6mb 23f
9:06am 14 21 mph 1008.5mb 23f
9:00am 15 23 mph 1008.3mb 23f
8:54am 16 24 mph 1008.3mb 23f
8:48am 14 22 mph 1008.1mb 23f
8:42am 16 25 mph 1008mb 24f
8:36am 16 23 mph 1008mb 24f
8:30am 15 25 mph 1007.9mb 24f
8:24am 14 23 mph 1007.8mb 24f
8:18am 14 23 mph 1007.7mb 24f
8:12am 15 20 mph 1007.6mb 25f
8:06am 13 20 mph 1007.5mb 25f
8:00am 15 21 mph 1007.4mb 25f
7:54am 16 24 mph 1007.3mb 24f
7:48am 11 21 mph 1007.1mb 24f
7:42am 14 24 mph 1007.1mb 24f
7:36am 15 26 mph 1007mb 24f
7:30am 13 22 mph 1006.9mb 24f
7:24am 14 18 mph 1006.8mb 25f
7:18am 14 23 mph 1006.7mb 25f
7:12am 15 22 mph 1006.7mb 25f
7:06am 14 22 mph 1006.6mb 26f
7:00am 15 20 mph 1006.5mb 26f
6:54am 13 20 mph 1006.4mb 26f
6:48am 16 22 mph 1006.3mb 26f
6:42am 15 21 mph 1006.3mb 26f
6:36am 13 21 mph 1006.1mb 26f
6:30am 15 22 mph 1006mb 26f
6:24am 14 20 mph 1005.9mb 26f
6:18am 15 22 mph 1005.8mb 26f
6:12am 13 16 mph 1005.7mb 26f
6:06am 10 17 mph 1005.6mb 26f
6:00am 13 17 mph 1005.5mb 26f
5:54am 8 15 mph 1005.5mb 26f
5:48am 11 14 mph 1005.3mb 26f
5:42am 9 13 mph 1005.2mb 26f
5:36am 9 13 mph 1005.1mb 26f
5:30am 7 10 mph 1005.1mb 26f
5:24am 7 11 mph 1004.9mb 26f
5:18am 9 13 mph 1004.9mb 26f
5:12am 8 14 mph 1004.8mb 26f
5:06am 8 14 mph 1004.8mb 26f
5:00am 7 14 mph 1004.7mb 26f
4:54am 9 14 mph 1004.6mb 26f
4:48am 11 16 mph 1004.6mb 26f
4:42am 10 17 mph 1004.5mb 26f
4:36am 9 16 mph 1004.4mb 26f
4:30am 10 16 mph 1004.3mb 26f
4:24am 9 14 mph 1004.3mb 26f
4:18am 9 16 mph 1004.1mb 25f
4:12am 11 16 mph 1004.1mb 25f
4:06am 10 17 mph 1004mb 25f
4:00am 9 15 mph 1004mb 25f
3:54am 9 13 mph 1003.9mb 25f
3:48am 9 14 mph 1003.8mb 25f
3:42am 10 15 mph 1003.8mb 25f
3:36am 8 11 mph 1003.8mb 25f
3:30am 8 14 mph 1003.8mb 25f
3:24am 8 14 mph 1003.7mb 25f
3:18am 7 10 mph 1003.8mb 25f
3:12am 7 11 mph 1003.8mb 25f
3:06am 8 11 mph 1003.7mb 25f
3:00am 7 9 mph 1003.7mb 25f
2:54am 6 9 mph 1003.6mb 26f
2:48am 6 9 mph 1003.6mb 26f
2:42am 7 10 mph 1003.6mb 26f
2:36am 7 9 mph 1003.6mb 26f
2:30am 6 8 mph 1003.6mb 26f
2:24am 5 6 mph 1003.5mb 26f
2:18am 6 7 mph 1003.5mb 26f
2:12am 5 6 mph 1003.5mb 26f
2:06am 5 7 mph 1003.5mb 26f
2:00am 3 7 mph 1003.4mb 26f
1:54am 6 8 mph 1003.4mb 26f
1:48am 5 7 mph 1003.3mb 26f
1:42am 3 6 mph 1003.2mb 26f
1:36am 5 6 mph 1003.1mb 26f
1:30am 3 5 mph 1003.1mb 26f
1:24am 2 3 mph 1003.2mb 26f
1:18am  -  2 mph 1003.2mb 26f
1:12am 2 2 mph 1003.3mb 26f
1:06am 2 2 mph 1003.3mb 26f
1:00am 2 3 mph 1003.3mb 26f
12:54am 2 3 mph 1003.4mb 26f
12:48am 3 3 mph - -
12:42am 3 3 mph - -
12:36am 2 2 mph - -
12:30am 1 2 mph 1003.5mb 26f
12:24am 1 3 mph 1003.6mb 26f
12:18am 2 2 mph 1003.7mb 25f
12:12am 1 2 mph 1003.8mb 25f
12:06am 2 2 mph 1003.9mb 25f
12:00am 2 2 mph 1004mb 25f
Fri 12/08 11:54pm 2 2 mph 1004mb 26f
11:48pm  -  1 mph 1004.1mb 26f
11:42pm  -  1 mph 1004.2mb 26f
11:36pm 1 3 mph 1004.3mb 26f
11:30pm  -  mph 1004.4mb 26f
11:24pm  -  mph 1004.5mb 26f
11:18pm  -  mph 1004.6mb 25f
11:12pm  -  mph 1004.7mb 25f
11:06pm  -  mph 1004.7mb 25f
11:00pm  -  mph 1004.8mb 25f
10:54pm  -  mph 1004.9mb 25f
10:48pm  -  mph 1005mb 25f
10:42pm  -  mph 1005.1mb 25f
10:36pm  -  mph 1005.2mb 25f
10:30pm 3 5 mph 1005.2mb 25f
10:24pm 5 6 mph 1005.2mb 25f
10:18pm  -  mph 1005.2mb 25f
10:12pm  -  mph 1005.3mb 25f
10:06pm  -  mph 1005.4mb 25f
10:00pm 3 6 mph 1005.4mb 25f
9:54pm 6 8 mph 1005.4mb 25f
9:48pm  -  mph 1005.5mb 25f
9:42pm  -  mph 1005.5mb 25f
9:36pm  -  mph 1005.5mb 25f
9:30pm 6 7 mph 1005.5mb 24f
9:24pm 6 8 mph 1005.6mb 24f
9:18pm 6 8 mph 1005.6mb 24f
9:12pm 6 7 mph 1005.6mb 25f
9:06pm 5 6 mph 1005.7mb 24f
9:00pm  -  mph 1005.8mb 24f
8:54pm  -  mph 1005.9mb 24f
8:48pm  -  mph 1006mb 24f
8:42pm  -  mph 1006.1mb 24f
8:36pm  -  mph 1006.2mb 24f
8:30pm 5 6 mph 1006.4mb 24f
8:24pm 5 8 mph 1006.5mb 24f
8:18pm 5 8 mph 1006.6mb 24f
8:12pm 6 10 mph 1006.7mb 24f
8:06pm 6 10 mph 1006.9mb 24f
8:00pm  -  mph 1007.1mb 24f
7:54pm  -  mph 1007.2mb 24f
7:48pm 7 11 mph 1007.3mb 24f
7:42pm 7 9 mph 1007.3mb 24f
7:36pm 8 11 mph 1007.5mb 24f
7:30pm 8 11 mph 1007.5mb 24f
7:24pm 8 10 mph 1007.5mb 24f
7:18pm  -  mph 1007.5mb 24f
7:12pm  -  mph 1007.6mb 24f
7:06pm  -  mph 1007.5mb 25f
7:00pm 7 10 mph 1007.7mb 25f
6:54pm 8 11 mph 1007.8mb 25f
6:48pm 7 9 mph 1007.8mb 26f
6:42pm 7 8 mph 1007.8mb 26f
6:36pm 7 11 mph 1007.9mb 26f
6:30pm  -  mph 1008mb 26f
6:24pm  -  mph 1008.1mb 26f
6:18pm  -  mph 1008.2mb 26f
6:12pm  -  mph 1008.2mb 26f
6:06pm  -  mph 1008.3mb 26f
6:00pm 6 10 mph 1008.3mb 26f
5:54pm 7 11 mph 1008.5mb 26f
5:48pm 6 10 mph 1008.6mb 26f
5:42pm 8 10 mph 1008.7mb 26f
5:36pm 8 10 mph 1008.7mb 26f
5:30pm 8 11 mph 1008.8mb 26f
5:24pm 7 9 mph 1008.9mb 26f
5:18pm 6 9 mph 1008.9mb 26f
5:12pm 6 8 mph 1008.7mb 26f
5:06pm 7 8 mph 1008.6mb 26f
5:00pm 3 7 mph 1008.5mb 26f
4:54pm 5 8 mph 1008.4mb 26f
4:48pm 7 9 mph 1008.5mb 26f
4:42pm 7 9 mph 1008.5mb 26f
4:36pm 7 10 mph 1008.5mb 26f
4:30pm 7 9 mph 1008.6mb 26f
4:24pm 7 9 mph 1008.7mb 26f
4:18pm 5 8 mph 1008.6mb 26f
4:12pm 8 10 mph 1008.7mb 26f
4:06pm 5 8 mph 1008.9mb 26f
4:00pm  -  mph 1009.1mb 26f
3:54pm  -  mph 1009mb 26f
3:48pm  -  mph 1009.1mb 26f
3:42pm  -  mph 1009.1mb 26f
3:36pm  -  mph 1009.1mb 26f
3:30pm  -  mph 1009.2mb 26f
3:24pm  -  mph 1009.1mb 26f
3:18pm  -  mph 1009.1mb 26f
3:12pm  -  mph 1009mb 26f
3:06pm  -  mph 1009mb 26f
3:00pm  -  mph 1009mb 26f
2:54pm  -  mph 1009.1mb 26f
2:30pm 13 15 mph 1008.8mb 26f
2:24pm 10 15 mph 1008.7mb 26f
2:18pm  -  mph 1008.6mb 26f
2:12pm  -  mph 1008.6mb 26f
2:06pm  -  mph 1008.7mb 27f
2:00pm 11 16 mph 1008.7mb 27f
1:54pm 10 17 mph 1008.8mb 26f
1:48pm 11 16 mph 1009mb 26f
1:42pm 9 16 mph 1009.1mb 26f
1:36pm 8 14 mph 1009.1mb 26f
1:30pm 11 17 mph 1009.1mb 26f
1:24pm 9 14 mph 1009.1mb 26f
1:18pm  -  mph 1009.1mb 26f
1:12pm  -  mph 1009.3mb 26f
1:06pm  -  mph 1009.4mb 26f
1:00pm 9 16 mph 1009.4mb 26f
12:54pm 14 18 mph 1009.5mb 26f
12:48pm  -  mph 1009.5mb 26f
12:42pm  -  mph 1009.5mb 26f
12:36pm  -  mph 1009.6mb 26f
12:30pm 11 18 mph 1009.6mb 26f
12:24pm 9 13 mph 1009.7mb 26f
12:18pm  -  mph 1009.6mb 26f
12:12pm  -  mph 1009.7mb 26f
12:06pm  -  mph 1009.7mb 26f
12:00pm 10 17 mph 1009.7mb 26f
11:54am 9 18 mph 1009.7mb 26f
11:48am  -  mph 1009.7mb 26f
11:42am  -  mph 1009.8mb 26f
11:36am  -  mph 1009.8mb 26f
11:30am 10 20 mph 1009.9mb 25f
11:24am 13 17 mph 1010mb 26f
11:18am 14 17 mph 1010mb 25f
11:12am 13 18 mph 1010.1mb 25f
11:06am 16 24 mph 1010.2mb 25f
11:00am 9 16 mph 1010.3mb 25f
10:54am 13 17 mph 1010.4mb 25f
10:48am 11 20 mph 1010.6mb 24f
9:54am  -  mph 1010.9mb 23f
9:48am  -  mph 1010.9mb 23f
9:42am  -  mph 1010.8mb 23f
9:36am  -  mph 1010.7mb 22f
9:30am 13 15 mph 1010.7mb 22f
9:24am 10 16 mph 1010.7mb 22f
9:18am 10 15 mph 1010.7mb 22f
9:12am 10 15 mph 1010.8mb 22f
9:06am 9 14 mph 1010.9mb 22f
9:00am 6 16 mph 1010.8mb 22f
8:54am 8 14 mph 1010.8mb 22f
8:48am  -  mph 1010.8mb 22f
8:42am  -  mph 1010.7mb 22f
8:36am  -  mph 1010.6mb 21f
8:30am  -  mph 1010.6mb 21f
8:24am  -  mph 1010.6mb 21f
8:18am 6 11 mph 1010.5mb 21f
8:12am 10 14 mph 1010.5mb 21f
8:06am 8 14 mph 1010.4mb 21f
8:00am 11 15 mph 1010.3mb 21f
7:54am 9 14 mph 1010.3mb 21f
7:48am  -  mph 1010.2mb 21f
7:42am  -  mph 1010.2mb 21f
7:36am  -  mph 1010.3mb 21f
7:30am  -  mph 1010.2mb 21f
7:24am  -  mph 1010.2mb 21f
7:18am  -  mph 1010.1mb 21f
7:12am  -  mph 1010mb 21f
7:06am  -  mph 1010mb 21f
7:00am  -  mph 1010.1mb 21f
6:54am  -  mph 1010mb 21f
6:48am  -  mph 1010.1mb 21f
6:42am  -  mph 1010.1mb 21f
6:36am  -  mph 1010mb 21f
6:30am 10 14 mph 1010mb 21f
6:24am 10 14 mph 1010.1mb 21f
6:18am  -  mph 1010.2mb 21f
6:12am  -  mph 1010.2mb 20f
6:06am  -  mph 1010.2mb 21f
6:00am  -  mph 1010.1mb 20f
5:54am  -  mph 1010mb 20f
5:48am 11 16 mph 1010mb 20f
5:42am 10 15 mph 1010mb 20f
5:36am 10 16 mph 1010mb 20f
5:30am  -  mph 1009.9mb 20f
5:24am  -  mph 1009.9mb 20f
5:18am  -  mph 1010mb 20f
5:12am  -  mph 1010mb 20f
5:06am  -  mph 1010mb 20f
5:00am  -  mph 1010mb 20f
4:54am  -  mph 1010mb 20f
4:48am 10 15 mph 1009.9mb 20f
4:42am 11 16 mph 1009.9mb 20f
4:36am 10 16 mph 1009.9mb 20f
4:30am  -  mph 1009.9mb 20f
4:24am  -  mph 1009.8mb 20f
4:18am  -  mph 1009.8mb 20f
4:12am  -  mph 1009.8mb 20f
4:06am  -  mph 1009.8mb 20f
4:00am 14 18 mph 1009.8mb 20f
3:54am 14 21 mph 1009.9mb 20f
3:48am 13 20 mph 1009.8mb 20f
3:42am 15 18 mph 1009.7mb 20f
3:36am 14 23 mph 1009.8mb 20f
3:30am 15 23 mph 1009.8mb 20f
3:24am 13 17 mph 1009.8mb 20f
3:18am 15 21 mph 1009.8mb 20f
3:12am 14 18 mph 1009.9mb 20f
3:06am 10 18 mph 1010mb 20f
3:00am  -  mph 1010.1mb 20f
2:54am  -  mph 1010.2mb 20f
2:48am  -  mph 1010.3mb 20f
2:42am  -  mph 1010.4mb 21f
2:36am  -  mph 1010.4mb 20f
2:30am  -  mph 1010.3mb 20f